Time,TemperatureF,DewpointF,PressureIn,WindDirection,WindDirectionDegrees,WindSpeedMPH,WindSpeedGustMPH,Humidity,HourlyPrecipIn,Conditions,Clouds,dailyrainin,SoftwareType,DateUTC
2013-06-13 00:01:00,57.0,37.0,-100.00,West,265,3.0,10.0,47,-99.99,,,-99.99,,2013-06-13 07:01:00,
2013-06-13 00:10:00,53.0,37.0,-100.00,WNW,290,3.0,7.0,54,-99.99,,,-99.99,,2013-06-13 07:10:00,
2013-06-13 01:01:00,53.0,37.0,-100.00,WNW,290,3.0,7.0,54,-99.99,,,-99.99,,2013-06-13 08:01:00,
2013-06-13 02:01:00,51.0,38.0,-100.00,NW,305,5.0,6.0,60,-99.99,,,-99.99,,2013-06-13 09:01:00,
2013-06-13 02:10:00,48.0,38.0,-100.00,WNW,300,3.0,6.0,68,-99.99,,,-99.99,,2013-06-13 09:10:00,
2013-06-13 02:11:00,51.0,38.0,-100.00,NW,305,5.0,6.0,60,-99.99,,,-99.99,,2013-06-13 09:11:00,
2013-06-13 03:01:00,48.0,38.0,-100.00,WNW,300,3.0,6.0,68,-99.99,,,-99.99,,2013-06-13 10:01:00,
2013-06-13 04:02:00,47.0,38.0,-100.00,NW,310,7.0,12.0,70,-99.99,,,-99.99,,2013-06-13 11:02:00,
2013-06-13 04:11:00,47.0,38.0,-100.00,NW,310,7.0,12.0,70,-99.99,,,-99.99,,2013-06-13 11:11:00,
2013-06-13 05:01:00,47.0,38.0,-100.00,NW,310,6.0,14.0,70,-99.99,,,-99.99,,2013-06-13 12:01:00,
2013-06-13 05:10:00,46.0,38.0,-100.00,WNW,295,10.0,15.0,73,-99.99,,,-99.99,,2013-06-13 12:10:00,
2013-06-13 06:01:00,46.0,38.0,-100.00,WNW,295,10.0,15.0,73,-99.99,,,-99.99,,2013-06-13 13:01:00,
2013-06-13 07:02:00,47.0,39.0,-100.00,North,360,5.0,9.0,73,-99.99,,,-99.99,,2013-06-13 14:02:00,
2013-06-13 07:10:00,50.0,41.0,-100.00,North,360,2.0,6.0,71,-99.99,,,-99.99,,2013-06-13 14:10:00,
2013-06-13 07:11:00,47.0,39.0,-100.00,North,360,5.0,9.0,73,-99.99,,,-99.99,,2013-06-13 14:11:00,
2013-06-13 09:11:00,57.0,45.0,-100.00,North,5,2.0,5.0,64,-99.99,,,-99.99,,2013-06-13 16:11:00,
2013-06-13 09:20:00,62.0,44.0,-100.00,North,355,3.0,9.0,51,-99.99,,,-99.99,,2013-06-13 16:20:00,
2013-06-13 10:02:00,62.0,44.0,-100.00,North,355,3.0,9.0,51,-99.99,,,-99.99,,2013-06-13 17:02:00,
2013-06-13 10:10:00,67.0,44.0,-100.00,North,360,5.0,8.0,43,-99.99,,,-99.99,,2013-06-13 17:10:00,
2013-06-13 10:11:00,62.0,44.0,-100.00,North,355,3.0,9.0,51,-99.99,,,-99.99,,2013-06-13 17:11:00,
2013-06-13 12:11:00,71.0,44.0,-100.00,North,360,2.0,7.0,37,-99.99,,,-99.99,,2013-06-13 19:11:00,
2013-06-13 13:10:00,73.0,43.0,-100.00,SSW,210,6.0,12.0,33,-99.99,,,-99.99,,2013-06-13 20:10:00,
2013-06-13 15:01:00,73.0,43.0,-100.00,SW,220,6.0,12.0,33,-99.99,,,-99.99,,2013-06-13 22:01:00,
2013-06-13 15:10:00,72.0,47.0,-100.00,NE,45,1.0,8.0,40,-99.99,,,-99.99,,2013-06-13 22:10:00,
2013-06-13 15:11:00,73.0,43.0,-100.00,SW,220,6.0,12.0,33,-99.99,,,-99.99,,2013-06-13 22:11:00,
2013-06-13 17:11:00,71.0,46.0,-100.00,NNE,20,5.0,10.0,40,-99.99,,,-99.99,,2013-06-14 00:11:00,
2013-06-13 18:10:00,70.0,42.0,-100.00,NW,310,9.0,14.0,36,-99.99,,,-99.99,,2013-06-14 01:10:00,
2013-06-13 20:02:00,66.0,41.0,-100.00,North,355,5.0,7.0,39,-99.99,,,-99.99,,2013-06-14 03:02:00,
2013-06-13 20:10:00,62.0,40.0,-100.00,WNW,295,5.0,9.0,44,-99.99,,,-99.99,,2013-06-14 03:10:00,
2013-06-13 20:11:00,66.0,41.0,-100.00,North,355,5.0,7.0,39,-99.99,,,-99.99,,2013-06-14 03:11:00,
2013-06-13 21:01:00,62.0,40.0,-100.00,WNW,295,5.0,9.0,44,-99.99,,,-99.99,,2013-06-14 04:01:00,
2013-06-13 22:02:00,58.0,39.0,-100.00,WNW,290,3.0,6.0,49,-99.99,,,-99.99,,2013-06-14 05:02:00,
2013-06-13 22:11:00,58.0,39.0,-100.00,WNW,290,3.0,6.0,49,-99.99,,,-99.99,,2013-06-14 05:11:00,
2013-06-13 22:20:00,57.0,39.0,-100.00,WNW,295,6.0,9.0,50,-99.99,,,-99.99,,2013-06-14 05:20:00,
2013-06-13 23:02:00,57.0,39.0,-100.00,WNW,295,6.0,9.0,50,-99.99,,,-99.99,,2013-06-14 06:02:00,
2013-06-13 23:10:00,57.0,40.0,-100.00,NW,305,6.0,9.0,52,-99.99,,,-99.99,,2013-06-14 06:10:00,
2013-06-13 23:12:00,57.0,39.0,-100.00,WNW,295,6.0,9.0,50,-99.99,,,-99.99,,2013-06-14 06:12:00,